Time;durP1;ratioP1;P1;durP2;ratioP2;P2;SDS_P1;SDS_P2;PMS_P1;PMS_P2;Temp;Humidity;BMP_temperature;BMP_pressure;BME280_temperature;BME280_humidity;BME280_pressure;Samples;Min_cycle;Max_cycle;Signal;HPM_P1;HPM_P2
2021/04/28 00:00:29;;;;;;;1.73;1.00;;;10.50;85.60;;;;;;5115414;28;20479;-62
2021/04/28 00:02:56;;;;;;;1.45;1.10;;;10.60;86.60;;;;;;5115484;28;20424;-61
2021/04/28 00:05:23;;;;;;;1.45;1.00;;;10.50;86.80;;;;;;5115303;28;20505;-62
2021/04/28 00:07:50;;;;;;;1.20;1.00;;;10.50;87.80;;;;;;5116838;28;20467;-63
2021/04/28 00:10:27;;;;;;;2.60;1.10;;;10.60;87.30;;;;;;5117483;28;20527;-63
2021/04/28 00:12:53;;;;;;;3.00;1.10;;;10.60;88.00;;;;;;5116978;28;20451;-62
2021/04/28 00:15:23;;;;;;;1.50;1.40;;;10.50;87.80;;;;;;5117560;28;20444;-62
2021/04/28 00:17:52;;;;;;;2.50;1.02;;;10.50;89.20;;;;;;5116963;28;20927;-62
2021/04/28 00:20:19;;;;;;;2.10;1.00;;;10.50;89.30;;;;;;5117262;28;20456;-63
2021/04/28 00:22:45;;;;;;;1.40;0.90;;;10.40;89.00;;;;;;5116901;28;20456;-63
2021/04/28 00:25:15;;;;;;;1.50;1.00;;;10.40;89.60;;;;;;5115845;28;20446;-63
2021/04/28 00:27:42;;;;;;;1.70;1.00;;;10.40;90.10;;;;;;5116811;28;20419;-63
2021/04/28 00:30:11;;;;;;;1.58;1.10;;;10.40;90.20;;;;;;5117130;28;20428;-64
2021/04/28 00:32:39;;;;;;;1.98;1.20;;;10.40;90.60;;;;;;5117254;28;20448;-63
2021/04/28 00:35:08;;;;;;;1.45;1.02;;;10.40;90.70;;;;;;5117239;28;20479;-64
2021/04/28 00:37:35;;;;;;;2.15;1.10;;;10.40;91.20;;;;;;5116564;28;20448;-64
2021/04/28 00:40:04;;;;;;;1.52;1.10;;;10.40;91.20;;;;;;5117109;28;20748;-61
2021/04/28 00:42:30;;;;;;;2.00;1.00;;;10.30;91.40;;;;;;5116996;28;20416;-62
2021/04/28 00:44:58;;;;;;;1.50;1.00;;;10.30;92.10;;;;;;5116328;28;20432;-63
2021/04/28 00:47:25;;;;;;;3.40;1.10;;;10.20;91.90;;;;;;5116776;28;20455;-62
2021/04/28 00:49:52;;;;;;;1.30;0.90;;;10.20;91.90;;;;;;5116755;28;20524;-63
2021/04/28 00:52:18;;;;;;;2.20;1.00;;;10.10;92.80;;;;;;5116355;28;20420;-62
2021/04/28 00:54:45;;;;;;;1.40;1.00;;;10.10;92.50;;;;;;5115739;28;20472;-64
2021/04/28 00:57:11;;;;;;;2.00;1.10;;;10.20;93.20;;;;;;5115888;28;20451;-63
2021/04/28 00:59:38;;;;;;;1.70;0.93;;;10.10;93.00;;;;;;5116515;28;20871;-63
2021/04/28 01:02:05;;;;;;;3.00;1.10;;;10.10;93.70;;;;;;5116015;28;20417;-62
2021/04/28 01:04:32;;;;;;;3.60;1.10;;;10.10;93.40;;;;;;5115867;28;20535;-62
2021/04/28 01:06:59;;;;;;;1.30;1.00;;;10.10;93.50;;;;;;5116331;28;20487;-62
2021/04/28 01:09:26;;;;;;;1.48;1.00;;;10.00;94.30;;;;;;5116391;28;20464;-62
2021/04/28 01:11:53;;;;;;;1.83;1.00;;;10.00;94.00;;;;;;5116088;28;20509;-62
2021/04/28 01:14:19;;;;;;;1.50;1.00;;;10.00;94.30;;;;;;5115621;28;20412;-62
2021/04/28 01:16:46;;;;;;;3.30;1.00;;;10.00;94.60;;;;;;5116384;28;20444;-62
2021/04/28 01:19:16;;;;;;;2.13;1.13;;;9.90;95.70;;;;;;5116557;28;20963;-62
2021/04/28 01:21:42;;;;;;;1.90;1.10;;;9.90;96.00;;;;;;5115999;28;20436;-63
2021/04/28 01:24:11;;;;;;;1.75;1.10;;;10.00;95.20;;;;;;5115852;28;20471;-63
2021/04/28 01:26:38;;;;;;;1.80;1.00;;;9.90;95.90;;;;;;5116133;28;20415;-62
2021/04/28 01:29:05;;;;;;;1.70;1.00;;;9.90;96.20;;;;;;5116037;28;20467;-62
2021/04/28 01:31:33;;;;;;;3.10;1.00;;;9.90;96.80;;;;;;5116421;28;20423;-63
2021/04/28 01:34:03;;;;;;;1.90;1.08;;;9.90;96.80;;;;;;5116014;28;20878;-62
2021/04/28 01:36:33;;;;;;;1.90;1.10;;;9.90;97.00;;;;;;5115468;28;20464;-62
2021/04/28 01:39:04;;;;;;;2.50;1.00;;;9.90;97.40;;;;;;5115214;28;20772;-63
2021/04/28 01:41:37;;;;;;;2.10;1.03;;;9.90;96.90;;;;;;5116139;28;20565;-62
2021/04/28 01:44:05;;;;;;;3.20;1.00;;;9.90;96.90;;;;;;5115931;28;20431;-63
2021/04/28 01:46:31;;;;;;;2.78;1.30;;;9.90;97.10;;;;;;5115382;28;20443;-63
2021/04/28 01:48:58;;;;;;;2.80;1.17;;;9.90;97.90;;;;;;5115899;28;20866;-63
2021/04/28 01:51:25;;;;;;;1.90;1.00;;;9.90;97.40;;;;;;5115697;28;20447;-62
2021/04/28 01:53:51;;;;;;;2.20;1.00;;;9.80;97.30;;;;;;5114528;28;20424;-62
2021/04/28 01:56:18;;;;;;;2.10;1.00;;;9.70;97.70;;;;;;5115607;28;20440;-62
2021/04/28 01:58:46;;;;;;;1.10;0.90;;;9.70;98.10;;;;;;5115020;28;20470;-63
2021/04/28 02:01:13;;;;;;;1.60;1.00;;;9.70;98.80;;;;;;5115407;28;20493;-62
2021/04/28 02:03:39;;;;;;;2.00;0.90;;;9.70;98.50;;;;;;5115741;28;20820;-62
2021/04/28 02:06:07;;;;;;;1.50;1.02;;;9.60;98.60;;;;;;5115289;28;20458;-63
2021/04/28 02:08:34;;;;;;;1.50;1.10;;;9.60;98.90;;;;;;5115567;28;20477;-62
2021/04/28 02:11:01;;;;;;;1.50;1.00;;;9.60;99.00;;;;;;5115493;28;20693;-63
2021/04/28 02:13:31;;;;;;;1.73;1.10;;;9.60;99.60;;;;;;5114930;28;20509;-62
2021/04/28 02:16:01;;;;;;;2.10;1.00;;;9.70;99.20;;;;;;5114770;28;20462;-62
2021/04/28 02:18:28;;;;;;;1.35;1.00;;;9.70;99.30;;;;;;5114209;28;20420;-62
2021/04/28 02:20:55;;;;;;;1.70;1.20;;;9.70;99.90;;;;;;5115412;28;20757;-62
2021/04/28 02:23:23;;;;;;;1.90;1.20;;;9.70;99.60;;;;;;5114971;28;20869;-62
2021/04/28 02:25:50;;;;;;;2.20;1.15;;;9.70;99.60;;;;;;5114698;28;20459;-62
2021/04/28 02:28:16;;;;;;;3.60;1.17;;;9.80;99.90;;;;;;5115125;28;20535;-63
2021/04/28 02:30:43;;;;;;;1.50;1.00;;;9.70;99.70;;;;;;5114988;28;20509;-62
2021/04/28 02:33:10;;;;;;;1.67;1.00;;;9.70;99.90;;;;;;5114698;28;20843;-63
2021/04/28 02:35:37;;;;;;;1.98;1.10;;;9.70;99.90;;;;;;5114747;28;20499;-62
2021/04/28 02:38:07;;;;;;;4.10;1.23;;;9.70;99.90;;;;;;5114274;28;20716;-63
2021/04/28 02:40:37;;;;;;;2.97;1.10;;;9.70;99.90;;;;;;5114032;28;20420;-63
2021/04/28 02:43:04;;;;;;;2.90;1.20;;;9.60;99.90;;;;;;5113077;28;20471;-62
2021/04/28 02:45:31;;;;;;;1.60;1.00;;;9.60;99.90;;;;;;5113139;28;20485;-63
2021/04/28 02:48:00;;;;;;;3.80;1.10;;;9.50;99.90;;;;;;5112849;28;20416;-62
2021/04/28 02:50:29;;;;;;;2.30;1.00;;;9.60;99.90;;;;;;5113184;28;20447;-62
2021/04/28 02:52:58;;;;;;;2.40;1.10;;;9.60;99.90;;;;;;5113396;28;20518;-62
2021/04/28 02:55:25;;;;;;;2.70;1.05;;;9.50;99.90;;;;;;5114085;28;20451;-62
2021/04/28 02:57:51;;;;;;;3.20;1.30;;;9.40;99.90;;;;;;5114636;28;20456;-62
2021/04/28 03:00:21;;;;;;;1.70;1.00;;;9.40;99.90;;;;;;5115044;28;20466;-62
2021/04/28 03:02:49;;;;;;;1.90;1.10;;;9.30;99.90;;;;;;5114581;28;20420;-62
2021/04/28 03:05:17;;;;;;;2.10;1.00;;;9.30;99.90;;;;;;5117015;28;20432;-62
2021/04/28 03:07:45;;;;;;;1.70;1.10;;;9.30;99.90;;;;;;5118437;28;20852;-62
2021/04/28 03:10:13;;;;;;;1.80;1.10;;;9.40;99.90;;;;;;5119481;28;20473;-63
2021/04/28 03:12:41;;;;;;;2.78;1.33;;;9.50;99.90;;;;;;5118328;28;20455;-62
2021/04/28 03:15:09;;;;;;;2.00;1.10;;;9.40;99.90;;;;;;5118393;28;20454;-62
2021/04/28 03:17:37;;;;;;;2.30;1.10;;;9.40;99.90;;;;;;5118950;28;20468;-62
2021/04/28 03:20:07;;;;;;;1.80;1.10;;;9.50;99.90;;;;;;5118912;28;20467;-62
2021/04/28 03:22:35;;;;;;;2.00;1.20;;;9.50;99.90;;;;;;5116783;28;20472;-62
2021/04/28 03:25:02;;;;;;;2.30;1.40;;;9.60;99.90;;;;;;5115599;28;20542;-62
2021/04/28 03:27:29;;;;;;;2.20;1.50;;;9.50;99.90;;;;;;5115740;28;20579;-62
2021/04/28 03:29:56;;;;;;;2.50;1.20;;;9.40;99.90;;;;;;5115224;28;20877;-61
2021/04/28 03:32:22;;;;;;;3.72;1.25;;;9.30;99.90;;;;;;5116586;28;20455;-62
2021/04/28 03:34:48;;;;;;;1.98;1.30;;;9.20;99.90;;;;;;5117054;28;20455;-62
2021/04/28 03:37:16;;;;;;;1.85;1.20;;;9.10;99.90;;;;;;5117497;28;20423;-62
2021/04/28 03:39:42;;;;;;;3.10;1.30;;;9.10;99.90;;;;;;5117646;28;20460;-62
2021/04/28 03:42:10;;;;;;;2.85;1.50;;;9.00;99.90;;;;;;5118039;28;20416;-61
2021/04/28 03:44:36;;;;;;;3.30;1.20;;;9.10;99.90;;;;;;5117696;28;20439;-61
2021/04/28 03:47:04;;;;;;;4.95;1.50;;;9.00;99.90;;;;;;5117476;28;20851;-62
2021/04/28 03:49:31;;;;;;;2.70;1.40;;;9.10;99.90;;;;;;5117992;28;20448;-61
2021/04/28 03:51:57;;;;;;;2.90;1.40;;;9.20;99.90;;;;;;5117869;28;20465;-62
2021/04/28 03:54:24;;;;;;;3.70;1.20;;;9.00;99.90;;;;;;5117859;28;20932;-61
2021/04/28 03:56:51;;;;;;;4.75;1.20;;;9.00;99.90;;;;;;5118029;28;20436;-62
2021/04/28 03:59:19;;;;;;;2.60;1.27;;;9.00;99.90;;;;;;5117764;28;20430;-61
2021/04/28 04:01:46;;;;;;;2.70;1.40;;;9.00;99.90;;;;;;5117431;28;20735;-61
2021/04/28 04:04:12;;;;;;;1.70;1.30;;;9.00;99.90;;;;;;5117364;28;20420;-63
2021/04/28 04:06:39;;;;;;;3.25;1.70;;;9.00;99.90;;;;;;5117917;28;20449;-61
2021/04/28 04:09:06;;;;;;;2.58;1.60;;;8.90;99.90;;;;;;5117404;28;20506;-62
2021/04/28 04:11:33;;;;;;;3.67;1.33;;;8.90;99.90;;;;;;5116990;28;20463;-62
2021/04/28 04:13:59;;;;;;;3.67;1.35;;;8.90;99.90;;;;;;5117703;28;20424;-62
2021/04/28 04:16:26;;;;;;;2.20;1.20;;;8.80;99.90;;;;;;5116686;28;20508;-62
2021/04/28 04:18:53;;;;;;;2.85;1.50;;;8.70;99.90;;;;;;5117162;28;20428;-62
2021/04/28 04:21:20;;;;;;;2.33;1.30;;;8.80;99.90;;;;;;5116306;28;20475;-61
2021/04/28 04:23:46;;;;;;;2.40;1.30;;;8.70;99.90;;;;;;5115857;28;20867;-62
2021/04/28 04:26:13;;;;;;;5.68;1.50;;;8.70;99.90;;;;;;5116672;28;20836;-62
2021/04/28 04:28:40;;;;;;;3.22;1.33;;;8.70;99.90;;;;;;5116846;28;20459;-62
2021/04/28 04:31:06;;;;;;;3.03;1.40;;;8.70;99.90;;;;;;5116813;28;20433;-62
2021/04/28 04:33:34;;;;;;;2.40;1.70;;;8.90;99.90;;;;;;5117167;28;20803;-62
2021/04/28 04:36:00;;;;;;;4.20;1.60;;;9.00;99.90;;;;;;5116592;28;20447;-62
2021/04/28 04:38:27;;;;;;;2.65;1.20;;;9.00;99.90;;;;;;5116134;28;20470;-61
2021/04/28 04:40:53;;;;;;;4.00;1.73;;;8.90;99.90;;;;;;5116322;28;20466;-62
2021/04/28 04:43:20;;;;;;;3.80;1.40;;;9.00;99.90;;;;;;5115367;28;20442;-62
2021/04/28 04:45:46;;;;;;;3.60;1.33;;;9.00;99.90;;;;;;5115584;28;20428;-62
2021/04/28 04:48:13;;;;;;;1.90;1.30;;;9.00;99.90;;;;;;5115605;28;20455;-62
2021/04/28 04:50:40;;;;;;;3.63;1.73;;;9.00;99.90;;;;;;5115916;28;20451;-62
2021/04/28 04:53:08;;;;;;;3.28;1.52;;;9.00;99.90;;;;;;5115967;28;20781;-62
2021/04/28 04:55:36;;;;;;;3.13;1.58;;;9.00;99.90;;;;;;5116047;28;20485;-62
2021/04/28 04:58:03;;;;;;;3.00;2.00;;;9.00;99.90;;;;;;5115605;28;20416;-62
2021/04/28 05:00:29;;;;;;;5.60;1.90;;;9.20;99.90;;;;;;5116086;28;20858;-63
2021/04/28 05:02:56;;;;;;;4.85;2.10;;;9.20;99.90;;;;;;5115916;28;20449;-60
2021/04/28 05:05:23;;;;;;;3.55;1.98;;;9.20;99.90;;;;;;5114009;28;20511;-61
2021/04/28 05:07:50;;;;;;;4.25;1.70;;;9.20;99.90;;;;;;5115841;28;20448;-61
2021/04/28 05:10:17;;;;;;;2.90;1.50;;;9.30;99.90;;;;;;5116216;28;20425;-63
2021/04/28 05:12:46;;;;;;;2.70;1.50;;;9.30;99.90;;;;;;5115034;28;20451;-61
2021/04/28 05:15:15;;;;;;;4.25;1.70;;;9.30;99.90;;;;;;5114458;28;20428;-61
2021/04/28 05:17:41;;;;;;;3.20;1.77;;;9.30;99.90;;;;;;5113595;28;20516;-61
2021/04/28 05:20:09;;;;;;;3.93;2.13;;;9.30;99.90;;;;;;5114759;28;20471;-61
2021/04/28 05:22:36;;;;;;;3.50;1.80;;;9.40;99.90;;;;;;5114943;28;20915;-62
2021/04/28 05:25:05;;;;;;;2.90;2.00;;;9.40;99.90;;;;;;5114940;28;20435;-61
2021/04/28 05:27:31;;;;;;;5.03;1.77;;;9.40;99.90;;;;;;5114898;28;20416;-62
2021/04/28 05:29:58;;;;;;;2.35;1.50;;;9.40;99.90;;;;;;5115242;28;20460;-61
2021/04/28 05:32:24;;;;;;;7.03;2.50;;;9.50;99.90;;;;;;5114641;28;20773;-62
2021/04/28 05:34:52;;;;;;;3.40;1.90;;;9.60;99.90;;;;;;5114780;28;20515;-61
2021/04/28 05:37:20;;;;;;;3.00;1.80;;;9.70;99.90;;;;;;5109322;28;20855;-61
2021/04/28 05:39:47;;;;;;;4.77;2.00;;;9.70;99.90;;;;;;5113831;28;20737;-61
2021/04/28 05:42:14;;;;;;;3.00;1.95;;;9.70;99.90;;;;;;5114865;28;20420;-62
2021/04/28 05:44:41;;;;;;;3.40;1.80;;;9.70;99.90;;;;;;5113920;28;20432;-61
2021/04/28 05:47:08;;;;;;;2.30;1.63;;;9.70;99.90;;;;;;5110171;28;20515;-61
2021/04/28 05:49:34;;;;;;;3.80;1.60;;;9.80;99.90;;;;;;5101731;28;20446;-61
2021/04/28 05:52:02;;;;;;;5.10;2.70;;;9.90;99.90;;;;;;5115000;28;20443;-61
2021/04/28 05:54:28;;;;;;;5.68;2.30;;;10.00;99.90;;;;;;5113138;28;20438;-61
2021/04/28 05:56:56;;;;;;;4.13;2.38;;;10.00;99.90;;;;;;5114041;28;20452;-62
2021/04/28 05:59:26;;;;;;;3.58;1.90;;;10.00;99.90;;;;;;5111240;28;20435;-62
2021/04/28 06:01:52;;;;;;;3.95;1.85;;;10.10;99.90;;;;;;5112945;28;20412;-61
2021/04/28 06:04:18;;;;;;;4.30;2.50;;;10.10;99.90;;;;;;5113843;28;20462;-62
2021/04/28 06:06:45;;;;;;;5.28;2.50;;;10.20;99.90;;;;;;5107681;28;20434;-62
2021/04/28 06:09:12;;;;;;;3.60;2.50;;;10.30;99.90;;;;;;5108503;28;21145;-62
2021/04/28 06:11:40;;;;;;;4.07;2.10;;;10.40;99.90;;;;;;5113399;28;20431;-62
2021/04/28 06:14:10;;;;;;;3.05;2.03;;;10.50;99.90;;;;;;5104578;28;20438;-61
2021/04/28 06:16:37;;;;;;;3.05;2.05;;;10.60;99.90;;;;;;5106636;28;20485;-61
2021/04/28 06:19:05;;;;;;;3.50;2.00;;;10.60;99.90;;;;;;5114128;28;20900;-62
2021/04/28 06:21:32;;;;;;;4.40;1.90;;;10.80;99.90;;;;;;5097166;28;20424;-62
2021/04/28 06:24:03;;;;;;;4.10;2.60;;;10.90;99.90;;;;;;5111991;28;20452;-62
2021/04/28 06:26:30;;;;;;;3.60;1.77;;;10.90;99.90;;;;;;5112857;28;20778;-62
2021/04/28 06:28:56;;;;;;;4.90;2.50;;;11.00;99.90;;;;;;5113057;28;20471;-63
2021/04/28 06:31:23;;;;;;;4.88;2.20;;;11.00;99.90;;;;;;5111914;28;20431;-62
2021/04/28 06:33:51;;;;;;;5.00;2.35;;;11.10;99.90;;;;;;5112749;28;20424;-61
2021/04/28 06:36:18;;;;;;;13.63;4.78;;;11.10;99.90;;;;;;5112925;28;20843;-62
2021/04/28 06:38:44;;;;;;;9.67;5.30;;;11.30;99.90;;;;;;5110751;28;20432;-62
2021/04/28 06:41:11;;;;;;;5.82;3.95;;;11.50;99.90;;;;;;5112035;28;20436;-62
2021/04/28 06:43:39;;;;;;;5.55;2.90;;;11.50;99.90;;;;;;5111099;28;20444;-61
2021/04/28 06:46:05;;;;;;;7.55;2.85;;;11.70;99.90;;;;;;5109572;28;20489;-67
2021/04/28 06:48:32;;;;;;;3.97;3.00;;;11.80;99.90;;;;;;5113361;28;20474;-68
2021/04/28 06:57:51;;;;;;;3.72;2.20;;;12.10;99.90;;;;;;5059505;28;20457;-65
2021/04/28 07:03:39;;;;;;;4.03;2.20;;;12.40;99.90;;;;;;5067276;28;20913;-66
2021/04/28 07:09:28;;;;;;;21.67;15.20;;;12.70;99.90;;;;;;5059426;28;20387;-65
2021/04/28 07:21:20;;;;;;;47.13;11.02;;;13.30;99.90;;;;;;5051317;28;20687;-65
2021/04/28 07:27:33;;;;;;;16.13;5.22;;;13.70;99.50;;;;;;5089296;28;20472;-66
2021/04/28 07:39:24;;;;;;;5.55;2.85;;;14.20;97.40;;;;;;5050004;28;20832;-64
2021/04/28 07:45:18;;;;;;;3.70;3.10;;;14.50;96.30;;;;;;5105860;28;20411;-63
2021/04/28 07:51:07;;;;;;;4.97;2.70;;;14.60;96.60;;;;;;5112622;28;20458;-63
2021/04/28 07:56:56;;;;;;;5.20;2.75;;;15.00;95.70;;;;;;5109932;28;20383;-63
2021/04/28 08:02:47;;;;;;;6.18;2.35;;;15.40;95.90;;;;;;5106884;28;21185;-63
2021/04/28 08:08:38;;;;;;;5.22;2.40;;;15.70;95.40;;;;;;5110898;28;20693;-63
2021/04/28 08:14:27;;;;;;;7.70;3.35;;;15.90;94.70;;;;;;5110950;28;20382;-63
2021/04/28 08:20:17;;;;;;;5.10;3.08;;;16.00;94.20;;;;;;5103796;28;20399;-64
2021/04/28 08:44:16;;;;;;;7.93;2.97;;;17.00;92.90;;;;;;5027068;28;20441;-65
2021/04/28 08:50:05;;;;;;;4.28;3.03;;;17.40;91.90;;;;;;5027623;28;20390;-64
2021/04/28 08:55:53;;;;;;;6.07;3.65;;;17.80;91.70;;;;;;5027932;28;20395;-64
2021/04/28 09:01:45;;;;;;;7.05;3.28;;;18.20;90.60;;;;;;5067525;28;20375;-64
2021/04/28 09:07:35;;;;;;;8.25;2.67;;;18.40;88.80;;;;;;5072414;28;20440;-64
2021/04/28 09:13:25;;;;;;;5.47;3.22;;;18.60;87.90;;;;;;5070093;28;20383;-55
2021/04/28 09:25:59;;;;;;;4.60;2.10;;;19.30;81.80;;;;;;5073485;28;20441;-56
2021/04/28 09:31:59;;;;;;;4.93;3.20;;;19.60;80.00;;;;;;5073630;28;20409;-55
2021/04/28 09:37:58;;;;;;;7.45;4.03;;;19.70;78.70;;;;;;5069844;28;20407;-53
2021/04/28 09:43:47;;;;;;;5.73;3.57;;;19.80;79.20;;;;;;5074070;28;20436;-59
2021/04/28 09:49:51;;;;;;;5.57;3.25;;;20.00;77.10;;;;;;5073869;28;20418;-61
2021/04/28 09:55:47;;;;;;;6.90;2.55;;;20.20;74.80;;;;;;5074280;28;20453;-60
2021/04/28 10:01:37;;;;;;;4.67;2.27;;;20.60;73.90;;;;;;5072316;28;20383;-61
2021/04/28 10:07:27;;;;;;;3.90;2.60;;;20.90;69.70;;;;;;5073154;28;20698;-60
2021/04/28 10:13:16;;;;;;;5.63;2.38;;;21.40;67.60;;;;;;5069731;28;20679;-60
2021/04/28 10:19:06;;;;;;;5.80;3.42;;;21.70;65.60;;;;;;5072254;28;20374;-59
2021/04/28 10:24:57;;;;;;;21.40;4.13;;;22.10;61.80;;;;;;5072945;28;20382;-61
2021/04/28 10:30:48;;;;;;;7.10;2.63;;;22.60;59.80;;;;;;5069835;28;20501;-61
2021/04/28 10:36:44;;;;;;;2.95;1.80;;;23.00;57.90;;;;;;5108915;28;20390;-61
2021/04/28 10:49:18;;;;;;;6.85;2.10;;;23.50;53.00;;;;;;5051432;28;20760;-60
2021/04/28 11:02:10;;;;;;;2.90;1.60;;;23.90;50.80;;;;;;5065966;28;20465;-60
2021/04/28 11:07:59;;;;;;;2.10;1.50;;;24.90;48.40;;;;;;5050420;28;20740;-60
2021/04/28 11:27:52;;;;;;;15.32;2.40;;;26.10;43.90;;;;;;5117985;28;20833;-60
2021/04/28 11:33:42;;;;;;;6.53;1.58;;;26.50;43.60;;;;;;5102488;28;20380;-60
2021/04/28 11:39:39;;;;;;;2.58;1.40;;;26.40;41.00;;;;;;5117735;28;20699;-61
2021/04/28 11:45:34;;;;;;;1.80;1.30;;;25.80;42.80;;;;;;5117779;28;20395;-62
2021/04/28 11:51:27;;;;;;;1.90;1.27;;;26.00;41.80;;;;;;5117705;28;20379;-62
2021/04/28 11:57:41;;;;;;;3.10;1.20;;;26.80;40.60;;;;;;5115839;28;20482;-62
2021/04/28 12:00:11;;;;;;;3.10;1.30;;;26.80;40.90;;;;;;5116025;28;20610;-61
2021/04/28 12:02:38;;;;;;;5.80;1.50;;;26.90;40.00;;;;;;5114496;28;20485;-61
2021/04/28 12:05:10;;;;;;;2.00;1.20;;;26.30;40.20;;;;;;5114849;28;20423;-62
2021/04/28 12:07:46;;;;;;;2.05;1.40;;;26.10;40.20;;;;;;5115329;28;20420;-62
2021/04/28 12:10:16;;;;;;;8.00;1.63;;;26.10;40.60;;;;;;5114766;28;20424;-60
2021/04/28 12:12:42;;;;;;;1.83;1.40;;;25.70;40.20;;;;;;5115325;28;20420;-60
2021/04/28 12:15:16;;;;;;;1.83;1.20;;;25.80;40.10;;;;;;5114619;28;20412;-60
2021/04/28 12:17:45;;;;;;;4.20;1.40;;;26.20;40.20;;;;;;5113712;28;20424;-60
2021/04/28 12:20:14;;;;;;;3.08;1.20;;;26.00;40.20;;;;;;5112201;28;20443;-61
2021/04/28 12:22:51;;;;;;;2.03;1.10;;;26.10;39.00;;;;;;5096063;28;20424;-60
2021/04/28 12:25:19;;;;;;;1.80;1.20;;;26.20;39.50;;;;;;5113885;28;20843;-59
2021/04/28 12:27:46;;;;;;;1.60;1.10;;;26.20;39.10;;;;;;5114043;28;20525;-60
2021/04/28 12:30:16;;;;;;;1.55;1.10;;;26.40;38.80;;;;;;5113596;28;20615;-59
2021/04/28 12:32:45;;;;;;;3.40;1.30;;;26.20;38.40;;;;;;5114196;28;20584;-59
2021/04/28 12:35:15;;;;;;;3.67;1.20;;;26.50;37.90;;;;;;5114349;28;20853;-59
2021/04/28 12:37:57;;;;;;;2.27;1.27;;;25.70;37.80;;;;;;5113053;28;20466;-59
2021/04/28 12:40:33;;;;;;;2.83;1.40;;;25.70;38.70;;;;;;5112918;28;20503;-59
2021/04/28 12:42:59;;;;;;;2.38;1.48;;;26.00;39.50;;;;;;5113470;28;20428;-59
2021/04/28 12:45:26;;;;;;;2.20;1.60;;;25.90;39.30;;;;;;5114835;28;20424;-59
2021/04/28 12:47:53;;;;;;;1.83;1.23;;;25.90;39.30;;;;;;5113500;28;20912;-60
2021/04/28 12:50:24;;;;;;;2.35;1.50;;;25.30;39.40;;;;;;5113256;28;20478;-59
2021/04/28 12:52:53;;;;;;;2.00;1.20;;;25.30;40.10;;;;;;5113969;28;21038;-59
2021/04/28 12:55:26;;;;;;;2.08;1.27;;;25.70;40.00;;;;;;5112272;28;20412;-60
2021/04/28 12:57:54;;;;;;;2.40;1.20;;;26.00;38.90;;;;;;5112516;28;20551;-59
2021/04/28 13:00:24;;;;;;;1.67;1.42;;;26.00;39.10;;;;;;5113599;28;20416;-59
2021/04/28 13:03:16;;;;;;;7.80;1.52;;;25.50;39.20;;;;;;5110416;28;20423;-59
2021/04/28 13:05:50;;;;;;;2.05;1.30;;;25.10;39.30;;;;;;5112998;28;20424;-59
2021/04/28 13:08:23;;;;;;;1.50;1.20;;;25.00;40.20;;;;;;5112166;28;20432;-59
2021/04/28 13:11:07;;;;;;;3.58;1.38;;;24.90;39.60;;;;;;5111049;28;20785;-59
2021/04/28 13:13:35;;;;;;;2.28;1.15;;;25.20;40.30;;;;;;5110662;28;20519;-60
2021/04/28 13:16:03;;;;;;;3.70;1.80;;;25.50;40.00;;;;;;5112192;28;20427;-59
2021/04/28 13:18:47;;;;;;;3.70;1.60;;;25.30;39.60;;;;;;5112468;28;20428;-59
2021/04/28 13:21:24;;;;;;;8.77;1.70;;;25.10;40.00;;;;;;5110736;28;20416;-59
2021/04/28 13:24:15;;;;;;;3.50;1.40;;;24.60;40.60;;;;;;5093038;28;20473;-58
2021/04/28 13:26:57;;;;;;;2.00;1.20;;;24.30;41.30;;;;;;5092511;28;20934;-59
2021/04/28 13:29:23;;;;;;;2.03;1.30;;;24.30;41.40;;;;;;5093643;28;20422;-60
2021/04/28 13:31:50;;;;;;;2.27;1.20;;;23.70;42.40;;;;;;5113135;28;20420;-59
2021/04/28 13:34:27;;;;;;;1.95;1.20;;;23.60;43.50;;;;;;5113355;28;20455;-59
2021/04/28 13:36:54;;;;;;;2.80;1.10;;;23.70;43.90;;;;;;5113064;28;20474;-60
2021/04/28 13:39:30;;;;;;;1.80;1.00;;;23.70;44.00;;;;;;5113509;28;20420;-60
2021/04/28 13:41:58;;;;;;;3.65;1.30;;;23.90;44.10;;;;;;5114424;28;20489;-60
2021/04/28 13:44:26;;;;;;;1.92;1.10;;;23.70;44.20;;;;;;5114349;28;20417;-59
2021/04/28 13:46:55;;;;;;;2.90;1.15;;;23.50;45.30;;;;;;5113078;28;20532;-60
2021/04/28 13:49:24;;;;;;;3.80;1.60;;;23.60;45.30;;;;;;5113490;28;20427;-61
2021/04/28 13:51:55;;;;;;;2.77;1.20;;;23.80;45.40;;;;;;5112663;28;20505;-61
2021/04/28 13:54:22;;;;;;;2.50;1.23;;;24.10;44.60;;;;;;5112566;28;20537;-62
2021/04/28 13:56:52;;;;;;;2.10;1.30;;;23.90;44.40;;;;;;5112232;28;20417;-61
2021/04/28 13:59:25;;;;;;;3.57;1.20;;;24.10;44.50;;;;;;5111694;28;20491;-61
2021/04/28 14:01:52;;;;;;;2.33;1.30;;;24.10;44.60;;;;;;5112006;28;20452;-60
2021/04/28 14:04:18;;;;;;;3.10;1.20;;;24.20;44.70;;;;;;5111388;28;20455;-59
2021/04/28 14:06:45;;;;;;;3.03;1.20;;;24.30;44.50;;;;;;5099905;28;20530;-60
2021/04/28 14:09:12;;;;;;;2.30;1.40;;;24.20;44.60;;;;;;5107702;28;20436;-61
2021/04/28 14:11:42;;;;;;;4.45;1.30;;;24.10;44.60;;;;;;5111875;28;20422;-60
2021/04/28 14:14:10;;;;;;;4.90;1.60;;;23.90;44.40;;;;;;5111272;28;20436;-60
2021/04/28 14:16:37;;;;;;;3.40;1.30;;;23.70;45.00;;;;;;5108277;28;20428;-62
2021/04/28 14:19:07;;;;;;;3.90;1.30;;;24.00;45.00;;;;;;5111807;28;20426;-59
2021/04/28 14:21:37;;;;;;;3.10;1.20;;;23.90;44.20;;;;;;5111404;28;20466;-60
2021/04/28 14:24:05;;;;;;;2.23;1.10;;;23.50;44.80;;;;;;5112707;28;20473;-61
2021/04/28 14:26:31;;;;;;;2.15;1.10;;;23.60;45.60;;;;;;5110855;28;20423;-61
2021/04/28 14:29:01;;;;;;;1.60;1.20;;;23.80;45.00;;;;;;5112470;28;20428;-62
2021/04/28 14:31:29;;;;;;;1.98;1.17;;;24.00;45.00;;;;;;5111168;28;20764;-62
2021/04/28 14:33:56;;;;;;;3.60;1.20;;;24.00;45.20;;;;;;5111073;28;20435;-61
2021/04/28 14:36:22;;;;;;;2.60;1.10;;;24.30;44.30;;;;;;5109794;28;20424;-62
2021/04/28 14:38:49;;;;;;;2.90;1.10;;;24.00;44.60;;;;;;5112648;28;20423;-62
2021/04/28 14:41:18;;;;;;;1.90;1.30;;;24.20;44.40;;;;;;5112191;28;20422;-62
2021/04/28 14:43:45;;;;;;;1.73;1.10;;;24.10;44.40;;;;;;5111432;28;20431;-61
2021/04/28 14:46:12;;;;;;;2.08;1.00;;;24.20;44.20;;;;;;5112284;28;20805;-60
2021/04/28 14:48:39;;;;;;;2.60;1.10;;;24.20;44.80;;;;;;5110978;28;20920;-60
2021/04/28 14:51:07;;;;;;;2.13;1.07;;;24.30;44.50;;;;;;5110925;28;20843;-60
2021/04/28 14:53:33;;;;;;;2.85;1.10;;;24.20;44.90;;;;;;5112098;28;20435;-61
2021/04/28 14:56:00;;;;;;;1.85;1.20;;;24.10;44.80;;;;;;5111771;28;20850;-61
2021/04/28 14:58:30;;;;;;;2.58;1.10;;;24.00;44.50;;;;;;5112355;28;20435;-62
2021/04/28 15:00:57;;;;;;;2.10;1.20;;;23.70;44.40;;;;;;5116287;28;20551;-62
2021/04/28 15:03:23;;;;;;;2.55;1.20;;;23.40;45.20;;;;;;5116388;28;20878;-62
2021/04/28 15:05:52;;;;;;;1.73;1.50;;;23.30;45.30;;;;;;5115369;28;20494;-62
2021/04/28 15:08:18;;;;;;;2.10;1.20;;;23.10;45.60;;;;;;5117981;28;20420;-62
2021/04/28 15:10:47;;;;;;;2.60;1.10;;;23.10;45.20;;;;;;5115472;28;20427;-63
2021/04/28 15:13:17;;;;;;;1.70;1.10;;;23.00;45.20;;;;;;5116568;28;20743;-62
2021/04/28 15:15:48;;;;;;;1.60;1.10;;;23.10;45.30;;;;;;5113943;28;20407;-61
2021/04/28 15:18:15;;;;;;;1.90;1.02;;;23.10;45.40;;;;;;5114486;28;20478;-61
2021/04/28 15:20:46;;;;;;;2.00;1.20;;;23.00;45.30;;;;;;5114124;28;20427;-61
2021/04/28 15:23:17;;;;;;;3.45;1.10;;;23.00;44.90;;;;;;5115528;28;20466;-61
2021/04/28 15:25:43;;;;;;;1.67;1.00;;;22.90;45.30;;;;;;5114929;28;20787;-61
2021/04/28 15:28:14;;;;;;;2.95;0.90;;;23.00;45.10;;;;;;5113116;28;20471;-62
2021/04/28 15:30:44;;;;;;;2.00;1.10;;;23.10;45.00;;;;;;5110759;28;20504;-62
2021/04/28 15:33:11;;;;;;;7.00;1.50;;;23.00;45.60;;;;;;5107346;28;20424;-61
2021/04/28 15:35:38;;;;;;;2.15;1.33;;;22.60;45.10;;;;;;5100669;28;20753;-61
2021/04/28 15:38:06;;;;;;;2.35;1.10;;;22.60;45.40;;;;;;5109436;28;20531;-61
2021/04/28 15:40:35;;;;;;;2.00;1.20;;;22.80;45.80;;;;;;5111454;28;20428;-61
2021/04/28 15:43:02;;;;;;;1.98;1.20;;;22.90;45.30;;;;;;5108355;28;20427;-61
2021/04/28 15:45:30;;;;;;;1.30;0.90;;;22.90;45.50;;;;;;5106249;28;20430;-60
2021/04/28 15:47:58;;;;;;;2.15;1.00;;;22.90;45.30;;;;;;5102945;28;20831;-61
2021/04/28 15:50:25;;;;;;;2.10;1.05;;;23.00;45.40;;;;;;5115454;28;20424;-61
2021/04/28 15:52:55;;;;;;;4.40;1.08;;;22.90;45.20;;;;;;5113750;28;20420;-59
2021/04/28 15:55:21;;;;;;;20.77;18.77;;;22.80;45.40;;;;;;5106263;28;20512;-60
2021/04/28 15:57:49;;;;;;;2.22;1.52;;;22.80;46.00;;;;;;5106292;28;20420;-59
2021/04/28 16:00:17;;;;;;;2.80;1.40;;;22.80;45.60;;;;;;5115711;28;20435;-60
2021/04/28 16:02:43;;;;;;;1.92;1.00;;;22.90;45.60;;;;;;5113990;28;20543;-60
2021/04/28 16:05:12;;;;;;;1.30;1.10;;;22.90;45.50;;;;;;5111546;28;20435;-59
2021/04/28 16:07:39;;;;;;;1.50;0.98;;;22.90;45.30;;;;;;5115707;28;20431;-59
2021/04/28 16:10:07;;;;;;;1.42;0.90;;;22.70;45.40;;;;;;5114273;28;20487;-60
2021/04/28 16:12:34;;;;;;;1.60;1.00;;;22.70;45.60;;;;;;5113560;28;20847;-60
2021/04/28 16:15:02;;;;;;;1.50;0.98;;;22.70;45.90;;;;;;5107541;28;20441;-60
2021/04/28 16:17:29;;;;;;;1.33;1.00;;;22.60;45.80;;;;;;5093245;28;20443;-60
2021/04/28 16:19:55;;;;;;;1.63;1.00;;;22.50;46.10;;;;;;5109456;28;20452;-60
2021/04/28 16:22:22;;;;;;;1.30;0.90;;;22.40;45.90;;;;;;5094076;28;20741;-60